sensor_id;sensor_type;location;lat;lon;timestamp;P1;durP1;ratioP1;P2;durP2;ratioP2
16845;SDS011;8539;53.188;8.696;2023-04-25T00:02:06;25.10;;;6.95;;
16845;SDS011;8539;53.188;8.696;2023-04-25T00:04:32;25.30;;;7.28;;
16845;SDS011;8539;53.188;8.696;2023-04-25T00:06:59;26.95;;;7.80;;
16845;SDS011;8539;53.188;8.696;2023-04-25T00:09:28;25.48;;;5.68;;
16845;SDS011;8539;53.188;8.696;2023-04-25T00:11:54;27.17;;;5.80;;
16845;SDS011;8539;53.188;8.696;2023-04-25T00:14:20;20.05;;;6.10;;
16845;SDS011;8539;53.188;8.696;2023-04-25T00:16:46;22.88;;;5.57;;
16845;SDS011;8539;53.188;8.696;2023-04-25T00:19:14;23.30;;;5.20;;
16845;SDS011;8539;53.188;8.696;2023-04-25T00:21:40;29.83;;;5.57;;
16845;SDS011;8539;53.188;8.696;2023-04-25T00:24:06;29.00;;;6.53;;
16845;SDS011;8539;53.188;8.696;2023-04-25T00:26:33;23.35;;;5.25;;
16845;SDS011;8539;53.188;8.696;2023-04-25T00:29:00;13.98;;;4.72;;
16845;SDS011;8539;53.188;8.696;2023-04-25T00:31:26;28.77;;;5.45;;
16845;SDS011;8539;53.188;8.696;2023-04-25T00:33:54;25.23;;;5.43;;
16845;SDS011;8539;53.188;8.696;2023-04-25T00:36:23;23.73;;;6.10;;
16845;SDS011;8539;53.188;8.696;2023-04-25T00:38:49;24.38;;;6.07;;
16845;SDS011;8539;53.188;8.696;2023-04-25T00:41:15;21.90;;;5.28;;
16845;SDS011;8539;53.188;8.696;2023-04-25T00:43:41;26.00;;;4.97;;
16845;SDS011;8539;53.188;8.696;2023-04-25T00:46:09;25.35;;;6.03;;
16845;SDS011;8539;53.188;8.696;2023-04-25T00:48:35;27.83;;;5.47;;
16845;SDS011;8539;53.188;8.696;2023-04-25T00:51:01;21.63;;;5.30;;
16845;SDS011;8539;53.188;8.696;2023-04-25T00:53:28;25.27;;;5.50;;
16845;SDS011;8539;53.188;8.696;2023-04-25T00:55:55;22.48;;;5.95;;
16845;SDS011;8539;53.188;8.696;2023-04-25T00:58:22;24.20;;;6.38;;
16845;SDS011;8539;53.188;8.696;2023-04-25T01:00:48;25.52;;;5.70;;
16845;SDS011;8539;53.188;8.696;2023-04-25T01:03:17;27.67;;;7.07;;
16845;SDS011;8539;53.188;8.696;2023-04-25T01:05:47;25.48;;;5.30;;
16845;SDS011;8539;53.188;8.696;2023-04-25T01:08:15;27.27;;;6.78;;
16845;SDS011;8539;53.188;8.696;2023-04-25T01:10:41;27.83;;;6.50;;
16845;SDS011;8539;53.188;8.696;2023-04-25T01:13:07;19.98;;;6.18;;
16845;SDS011;8539;53.188;8.696;2023-04-25T01:15:34;19.70;;;4.97;;
16845;SDS011;8539;53.188;8.696;2023-04-25T01:18:01;24.02;;;6.85;;
16845;SDS011;8539;53.188;8.696;2023-04-25T01:20:28;21.48;;;5.10;;
16845;SDS011;8539;53.188;8.696;2023-04-25T01:22:54;19.83;;;6.93;;
16845;SDS011;8539;53.188;8.696;2023-04-25T01:25:21;16.23;;;4.50;;
16845;SDS011;8539;53.188;8.696;2023-04-25T01:27:48;16.55;;;5.57;;
16845;SDS011;8539;53.188;8.696;2023-04-25T01:30:14;18.23;;;5.18;;
16845;SDS011;8539;53.188;8.696;2023-04-25T01:32:41;25.90;;;8.35;;
16845;SDS011;8539;53.188;8.696;2023-04-25T01:35:08;28.83;;;5.85;;
16845;SDS011;8539;53.188;8.696;2023-04-25T01:37:42;17.95;;;4.93;;
16845;SDS011;8539;53.188;8.696;2023-04-25T01:40:09;27.50;;;4.63;;
16845;SDS011;8539;53.188;8.696;2023-04-25T01:42:37;19.25;;;5.78;;
16845;SDS011;8539;53.188;8.696;2023-04-25T01:45:06;16.88;;;3.88;;
16845;SDS011;8539;53.188;8.696;2023-04-25T01:47:33;23.30;;;4.60;;
16845;SDS011;8539;53.188;8.696;2023-04-25T01:50:02;21.70;;;5.65;;
16845;SDS011;8539;53.188;8.696;2023-04-25T01:52:29;21.60;;;5.68;;
16845;SDS011;8539;53.188;8.696;2023-04-25T01:54:56;25.20;;;4.97;;
16845;SDS011;8539;53.188;8.696;2023-04-25T01:57:24;22.63;;;6.05;;
16845;SDS011;8539;53.188;8.696;2023-04-25T01:59:50;33.97;;;6.88;;
16845;SDS011;8539;53.188;8.696;2023-04-25T02:02:17;23.92;;;4.80;;
16845;SDS011;8539;53.188;8.696;2023-04-25T02:04:43;25.67;;;5.43;;
16845;SDS011;8539;53.188;8.696;2023-04-25T02:07:09;27.45;;;5.45;;
16845;SDS011;8539;53.188;8.696;2023-04-25T02:09:35;25.45;;;5.35;;
16845;SDS011;8539;53.188;8.696;2023-04-25T02:12:01;23.58;;;5.25;;
16845;SDS011;8539;53.188;8.696;2023-04-25T02:14:27;13.60;;;4.68;;
16845;SDS011;8539;53.188;8.696;2023-04-25T02:16:54;17.20;;;5.40;;
16845;SDS011;8539;53.188;8.696;2023-04-25T02:19:20;27.90;;;5.47;;
16845;SDS011;8539;53.188;8.696;2023-04-25T02:21:46;13.65;;;4.20;;
16845;SDS011;8539;53.188;8.696;2023-04-25T02:24:12;23.73;;;5.60;;
16845;SDS011;8539;53.188;8.696;2023-04-25T02:26:38;24.48;;;5.43;;
16845;SDS011;8539;53.188;8.696;2023-04-25T02:29:04;22.45;;;4.75;;
16845;SDS011;8539;53.188;8.696;2023-04-25T02:31:31;21.20;;;5.13;;
16845;SDS011;8539;53.188;8.696;2023-04-25T02:33:57;19.77;;;4.85;;
16845;SDS011;8539;53.188;8.696;2023-04-25T02:36:23;22.17;;;5.30;;
16845;SDS011;8539;53.188;8.696;2023-04-25T02:38:49;19.80;;;5.18;;
16845;SDS011;8539;53.188;8.696;2023-04-25T02:41:15;21.10;;;4.30;;
16845;SDS011;8539;53.188;8.696;2023-04-25T02:43:41;23.88;;;6.45;;
16845;SDS011;8539;53.188;8.696;2023-04-25T02:46:07;23.30;;;5.22;;
16845;SDS011;8539;53.188;8.696;2023-04-25T02:48:33;24.05;;;5.85;;
16845;SDS011;8539;53.188;8.696;2023-04-25T02:50:59;20.60;;;5.10;;
16845;SDS011;8539;53.188;8.696;2023-04-25T02:53:25;21.02;;;7.18;;
16845;SDS011;8539;53.188;8.696;2023-04-25T02:55:51;23.98;;;5.00;;
16845;SDS011;8539;53.188;8.696;2023-04-25T02:58:18;21.70;;;4.85;;
16845;SDS011;8539;53.188;8.696;2023-04-25T03:00:44;12.73;;;4.38;;
16845;SDS011;8539;53.188;8.696;2023-04-25T03:03:10;19.55;;;5.13;;
16845;SDS011;8539;53.188;8.696;2023-04-25T03:05:36;23.77;;;4.90;;
16845;SDS011;8539;53.188;8.696;2023-04-25T03:08:02;17.00;;;4.43;;
16845;SDS011;8539;53.188;8.696;2023-04-25T03:10:28;22.25;;;5.50;;
16845;SDS011;8539;53.188;8.696;2023-04-25T03:12:54;23.77;;;4.97;;
16845;SDS011;8539;53.188;8.696;2023-04-25T03:15:21;19.25;;;5.65;;
16845;SDS011;8539;53.188;8.696;2023-04-25T03:17:47;17.48;;;4.65;;
16845;SDS011;8539;53.188;8.696;2023-04-25T03:20:13;22.13;;;4.65;;
16845;SDS011;8539;53.188;8.696;2023-04-25T03:22:39;14.32;;;3.88;;
16845;SDS011;8539;53.188;8.696;2023-04-25T03:25:05;18.27;;;4.47;;
16845;SDS011;8539;53.188;8.696;2023-04-25T03:27:32;19.55;;;3.85;;
16845;SDS011;8539;53.188;8.696;2023-04-25T03:29:58;27.88;;;5.97;;
16845;SDS011;8539;53.188;8.696;2023-04-25T03:32:24;18.58;;;4.20;;
16845;SDS011;8539;53.188;8.696;2023-04-25T03:34:50;14.88;;;3.58;;
16845;SDS011;8539;53.188;8.696;2023-04-25T03:37:16;24.88;;;5.82;;
16845;SDS011;8539;53.188;8.696;2023-04-25T03:39:42;26.90;;;7.10;;
16845;SDS011;8539;53.188;8.696;2023-04-25T03:42:08;20.02;;;4.47;;
16845;SDS011;8539;53.188;8.696;2023-04-25T03:44:34;22.25;;;4.22;;
16845;SDS011;8539;53.188;8.696;2023-04-25T03:47:00;29.02;;;5.43;;
16845;SDS011;8539;53.188;8.696;2023-04-25T03:49:26;26.85;;;4.93;;
16845;SDS011;8539;53.188;8.696;2023-04-25T03:51:52;28.33;;;6.45;;
16845;SDS011;8539;53.188;8.696;2023-04-25T03:54:18;14.70;;;3.60;;
16845;SDS011;8539;53.188;8.696;2023-04-25T03:56:44;18.10;;;4.63;;
16845;SDS011;8539;53.188;8.696;2023-04-25T03:59:10;20.52;;;4.45;;
16845;SDS011;8539;53.188;8.696;2023-04-25T04:01:36;20.17;;;3.40;;
16845;SDS011;8539;53.188;8.696;2023-04-25T04:04:03;39.35;;;5.10;;
16845;SDS011;8539;53.188;8.696;2023-04-25T04:06:29;14.82;;;4.72;;
16845;SDS011;8539;53.188;8.696;2023-04-25T04:08:55;11.50;;;3.55;;
16845;SDS011;8539;53.188;8.696;2023-04-25T04:11:23;17.67;;;3.88;;
16845;SDS011;8539;53.188;8.696;2023-04-25T04:13:49;22.38;;;3.92;;
16845;SDS011;8539;53.188;8.696;2023-04-25T04:16:15;21.02;;;4.95;;
16845;SDS011;8539;53.188;8.696;2023-04-25T04:18:41;17.95;;;3.60;;
16845;SDS011;8539;53.188;8.696;2023-04-25T04:21:07;17.95;;;3.72;;
16845;SDS011;8539;53.188;8.696;2023-04-25T04:23:34;11.93;;;3.60;;
16845;SDS011;8539;53.188;8.696;2023-04-25T04:26:00;26.88;;;3.58;;
16845;SDS011;8539;53.188;8.696;2023-04-25T04:28:26;13.15;;;4.47;;
16845;SDS011;8539;53.188;8.696;2023-04-25T04:30:53;22.80;;;4.43;;
16845;SDS011;8539;53.188;8.696;2023-04-25T04:33:19;12.63;;;3.65;;
16845;SDS011;8539;53.188;8.696;2023-04-25T04:35:45;18.13;;;3.78;;
16845;SDS011;8539;53.188;8.696;2023-04-25T04:38:12;17.15;;;4.25;;
16845;SDS011;8539;53.188;8.696;2023-04-25T04:40:41;18.67;;;4.03;;
16845;SDS011;8539;53.188;8.696;2023-04-25T04:43:10;22.10;;;3.80;;
16845;SDS011;8539;53.188;8.696;2023-04-25T04:45:36;19.05;;;4.00;;
16845;SDS011;8539;53.188;8.696;2023-04-25T04:48:05;23.00;;;3.67;;
16845;SDS011;8539;53.188;8.696;2023-04-25T04:50:31;16.45;;;3.38;;
16845;SDS011;8539;53.188;8.696;2023-04-25T04:52:58;22.08;;;3.65;;
16845;SDS011;8539;53.188;8.696;2023-04-25T04:55:24;14.45;;;3.25;;
16845;SDS011;8539;53.188;8.696;2023-04-25T04:57:50;12.18;;;3.60;;
16845;SDS011;8539;53.188;8.696;2023-04-25T05:00:16;13.95;;;3.90;;
16845;SDS011;8539;53.188;8.696;2023-04-25T05:02:43;18.35;;;3.50;;
16845;SDS011;8539;53.188;8.696;2023-04-25T05:05:09;9.07;;;2.90;;
16845;SDS011;8539;53.188;8.696;2023-04-25T05:07:35;20.52;;;4.13;;
16845;SDS011;8539;53.188;8.696;2023-04-25T05:10:02;11.73;;;3.38;;
16845;SDS011;8539;53.188;8.696;2023-04-25T05:12:28;16.27;;;3.25;;
16845;SDS011;8539;53.188;8.696;2023-04-25T05:14:55;24.10;;;5.35;;
16845;SDS011;8539;53.188;8.696;2023-04-25T05:17:21;14.63;;;3.60;;
16845;SDS011;8539;53.188;8.696;2023-04-25T05:19:48;15.02;;;3.17;;
16845;SDS011;8539;53.188;8.696;2023-04-25T05:22:14;12.93;;;3.75;;
16845;SDS011;8539;53.188;8.696;2023-04-25T05:24:40;11.50;;;3.55;;
16845;SDS011;8539;53.188;8.696;2023-04-25T05:27:06;14.30;;;3.47;;
16845;SDS011;8539;53.188;8.696;2023-04-25T05:29:32;17.00;;;3.58;;
16845;SDS011;8539;53.188;8.696;2023-04-25T05:31:59;22.42;;;3.78;;
16845;SDS011;8539;53.188;8.696;2023-04-25T05:34:25;8.45;;;2.40;;
16845;SDS011;8539;53.188;8.696;2023-04-25T05:36:51;17.45;;;3.17;;
16845;SDS011;8539;53.188;8.696;2023-04-25T05:39:17;8.45;;;2.75;;
16845;SDS011;8539;53.188;8.696;2023-04-25T05:41:43;13.07;;;3.20;;
16845;SDS011;8539;53.188;8.696;2023-04-25T05:44:09;16.20;;;5.78;;
16845;SDS011;8539;53.188;8.696;2023-04-25T05:46:36;19.38;;;4.70;;
16845;SDS011;8539;53.188;8.696;2023-04-25T05:49:02;14.50;;;3.30;;
16845;SDS011;8539;53.188;8.696;2023-04-25T05:51:29;14.70;;;3.78;;
16845;SDS011;8539;53.188;8.696;2023-04-25T05:53:55;13.70;;;2.78;;
16845;SDS011;8539;53.188;8.696;2023-04-25T05:56:21;19.45;;;3.50;;
16845;SDS011;8539;53.188;8.696;2023-04-25T05:58:47;17.40;;;2.45;;
16845;SDS011;8539;53.188;8.696;2023-04-25T06:01:13;10.80;;;2.92;;
16845;SDS011;8539;53.188;8.696;2023-04-25T06:03:39;12.07;;;2.72;;
16845;SDS011;8539;53.188;8.696;2023-04-25T06:06:08;11.65;;;3.47;;
16845;SDS011;8539;53.188;8.696;2023-04-25T06:08:35;11.63;;;3.45;;
16845;SDS011;8539;53.188;8.696;2023-04-25T06:11:01;4.80;;;2.50;;
16845;SDS011;8539;53.188;8.696;2023-04-25T06:13:27;18.15;;;3.75;;
16845;SDS011;8539;53.188;8.696;2023-04-25T06:15:53;15.18;;;2.78;;
16845;SDS011;8539;53.188;8.696;2023-04-25T06:18:19;15.38;;;2.80;;
16845;SDS011;8539;53.188;8.696;2023-04-25T06:20:45;9.65;;;2.28;;
16845;SDS011;8539;53.188;8.696;2023-04-25T06:23:11;12.48;;;3.72;;
16845;SDS011;8539;53.188;8.696;2023-04-25T06:25:37;10.48;;;2.75;;
16845;SDS011;8539;53.188;8.696;2023-04-25T06:28:03;11.75;;;3.35;;
16845;SDS011;8539;53.188;8.696;2023-04-25T06:30:30;16.75;;;3.05;;
16845;SDS011;8539;53.188;8.696;2023-04-25T06:32:56;13.20;;;3.20;;
16845;SDS011;8539;53.188;8.696;2023-04-25T06:35:22;15.15;;;2.90;;
16845;SDS011;8539;53.188;8.696;2023-04-25T06:37:48;9.73;;;2.35;;
16845;SDS011;8539;53.188;8.696;2023-04-25T06:40:14;10.65;;;3.05;;
16845;SDS011;8539;53.188;8.696;2023-04-25T06:42:42;9.32;;;2.63;;
16845;SDS011;8539;53.188;8.696;2023-04-25T06:45:08;13.25;;;3.63;;
16845;SDS011;8539;53.188;8.696;2023-04-25T06:47:35;12.38;;;2.72;;
16845;SDS011;8539;53.188;8.696;2023-04-25T06:50:02;7.20;;;2.35;;
16845;SDS011;8539;53.188;8.696;2023-04-25T06:52:28;6.22;;;1.70;;
16845;SDS011;8539;53.188;8.696;2023-04-25T06:54:54;14.35;;;2.50;;
16845;SDS011;8539;53.188;8.696;2023-04-25T06:57:20;9.63;;;2.17;;
16845;SDS011;8539;53.188;8.696;2023-04-25T06:59:46;11.20;;;4.07;;
16845;SDS011;8539;53.188;8.696;2023-04-25T07:02:12;7.35;;;1.92;;
16845;SDS011;8539;53.188;8.696;2023-04-25T07:04:38;14.65;;;3.05;;
16845;SDS011;8539;53.188;8.696;2023-04-25T07:07:05;17.05;;;3.42;;
16845;SDS011;8539;53.188;8.696;2023-04-25T07:09:31;19.10;;;2.60;;
16845;SDS011;8539;53.188;8.696;2023-04-25T07:11:59;17.67;;;3.33;;
16845;SDS011;8539;53.188;8.696;2023-04-25T07:14:27;14.18;;;2.15;;
16845;SDS011;8539;53.188;8.696;2023-04-25T07:16:53;15.20;;;2.85;;
16845;SDS011;8539;53.188;8.696;2023-04-25T07:19:22;15.88;;;2.78;;
16845;SDS011;8539;53.188;8.696;2023-04-25T07:21:52;24.10;;;5.45;;
16845;SDS011;8539;53.188;8.696;2023-04-25T07:24:18;8.23;;;2.25;;
16845;SDS011;8539;53.188;8.696;2023-04-25T07:26:44;8.20;;;1.92;;
16845;SDS011;8539;53.188;8.696;2023-04-25T07:29:10;11.65;;;2.53;;
16845;SDS011;8539;53.188;8.696;2023-04-25T07:31:37;12.48;;;2.53;;
16845;SDS011;8539;53.188;8.696;2023-04-25T07:34:03;11.13;;;2.80;;
16845;SDS011;8539;53.188;8.696;2023-04-25T07:36:30;10.05;;;4.40;;
16845;SDS011;8539;53.188;8.696;2023-04-25T07:38:56;13.10;;;2.60;;
16845;SDS011;8539;53.188;8.696;2023-04-25T07:41:22;13.45;;;3.25;;
16845;SDS011;8539;53.188;8.696;2023-04-25T07:43:48;13.05;;;2.00;;
16845;SDS011;8539;53.188;8.696;2023-04-25T07:46:14;6.00;;;2.28;;
16845;SDS011;8539;53.188;8.696;2023-04-25T07:48:40;9.27;;;2.17;;
16845;SDS011;8539;53.188;8.696;2023-04-25T07:51:06;10.35;;;2.65;;
16845;SDS011;8539;53.188;8.696;2023-04-25T07:53:33;13.20;;;2.30;;
16845;SDS011;8539;53.188;8.696;2023-04-25T07:56:00;8.27;;;1.92;;
16845;SDS011;8539;53.188;8.696;2023-04-25T07:58:26;6.40;;;2.22;;
16845;SDS011;8539;53.188;8.696;2023-04-25T08:00:52;11.10;;;2.22;;
16845;SDS011;8539;53.188;8.696;2023-04-25T08:03:18;13.32;;;2.22;;
16845;SDS011;8539;53.188;8.696;2023-04-25T08:05:44;14.90;;;2.35;;
16845;SDS011;8539;53.188;8.696;2023-04-25T08:08:11;9.43;;;2.28;;
16845;SDS011;8539;53.188;8.696;2023-04-25T08:10:37;9.32;;;2.88;;
16845;SDS011;8539;53.188;8.696;2023-04-25T08:13:03;14.98;;;3.03;;
16845;SDS011;8539;53.188;8.696;2023-04-25T08:15:29;7.50;;;2.03;;
16845;SDS011;8539;53.188;8.696;2023-04-25T08:17:55;8.82;;;1.73;;
16845;SDS011;8539;53.188;8.696;2023-04-25T08:20:21;8.20;;;2.22;;
16845;SDS011;8539;53.188;8.696;2023-04-25T08:22:47;10.27;;;2.13;;
16845;SDS011;8539;53.188;8.696;2023-04-25T08:25:14;8.32;;;2.38;;
16845;SDS011;8539;53.188;8.696;2023-04-25T08:27:40;9.93;;;2.15;;
16845;SDS011;8539;53.188;8.696;2023-04-25T08:30:06;9.73;;;2.20;;
16845;SDS011;8539;53.188;8.696;2023-04-25T08:32:34;5.40;;;1.98;;
16845;SDS011;8539;53.188;8.696;2023-04-25T08:35:03;13.70;;;1.92;;
16845;SDS011;8539;53.188;8.696;2023-04-25T08:37:29;13.85;;;1.75;;
16845;SDS011;8539;53.188;8.696;2023-04-25T08:39:55;10.52;;;2.35;;
16845;SDS011;8539;53.188;8.696;2023-04-25T08:42:21;6.72;;;2.40;;
16845;SDS011;8539;53.188;8.696;2023-04-25T08:44:50;10.65;;;2.45;;
16845;SDS011;8539;53.188;8.696;2023-04-25T08:47:20;14.88;;;2.25;;
16845;SDS011;8539;53.188;8.696;2023-04-25T08:49:47;4.47;;;1.92;;
16845;SDS011;8539;53.188;8.696;2023-04-25T08:52:15;17.73;;;3.63;;
16845;SDS011;8539;53.188;8.696;2023-04-25T08:54:47;5.82;;;1.35;;
16845;SDS011;8539;53.188;8.696;2023-04-25T08:57:14;6.13;;;1.90;;
16845;SDS011;8539;53.188;8.696;2023-04-25T08:59:40;4.75;;;1.48;;
16845;SDS011;8539;53.188;8.696;2023-04-25T09:02:11;4.13;;;1.65;;
16845;SDS011;8539;53.188;8.696;2023-04-25T09:04:42;5.28;;;1.50;;
16845;SDS011;8539;53.188;8.696;2023-04-25T09:07:09;8.85;;;1.95;;
16845;SDS011;8539;53.188;8.696;2023-04-25T09:09:35;6.78;;;1.63;;
16845;SDS011;8539;53.188;8.696;2023-04-25T09:12:01;10.07;;;1.77;;
16845;SDS011;8539;53.188;8.696;2023-04-25T09:14:28;4.93;;;1.38;;
16845;SDS011;8539;53.188;8.696;2023-04-25T09:19:32;7.47;;;1.70;;
16845;SDS011;8539;53.188;8.696;2023-04-25T09:22:05;6.95;;;1.73;;
16845;SDS011;8539;53.188;8.696;2023-04-25T09:24:33;7.03;;;2.10;;
16845;SDS011;8539;53.188;8.696;2023-04-25T09:27:08;9.70;;;2.40;;
16845;SDS011;8539;53.188;8.696;2023-04-25T09:29:36;5.88;;;1.98;;
16845;SDS011;8539;53.188;8.696;2023-04-25T09:32:19;4.53;;;1.88;;
16845;SDS011;8539;53.188;8.696;2023-04-25T09:34:47;4.38;;;1.83;;
16845;SDS011;8539;53.188;8.696;2023-04-25T09:37:19;9.48;;;1.88;;
16845;SDS011;8539;53.188;8.696;2023-04-25T09:39:54;7.28;;;1.98;;
16845;SDS011;8539;53.188;8.696;2023-04-25T09:42:25;9.48;;;2.10;;
16845;SDS011;8539;53.188;8.696;2023-04-25T09:44:53;4.57;;;1.20;;
16845;SDS011;8539;53.188;8.696;2023-04-25T09:47:22;3.80;;;1.80;;
16845;SDS011;8539;53.188;8.696;2023-04-25T09:49:49;3.60;;;1.75;;
16845;SDS011;8539;53.188;8.696;2023-04-25T09:52:20;4.63;;;1.65;;
16845;SDS011;8539;53.188;8.696;2023-04-25T09:54:48;8.90;;;3.15;;
16845;SDS011;8539;53.188;8.696;2023-04-25T09:57:22;7.60;;;1.88;;
16845;SDS011;8539;53.188;8.696;2023-04-25T09:59:53;8.30;;;1.40;;
16845;SDS011;8539;53.188;8.696;2023-04-25T10:02:23;5.88;;;1.38;;
16845;SDS011;8539;53.188;8.696;2023-04-25T10:04:51;5.97;;;1.10;;
16845;SDS011;8539;53.188;8.696;2023-04-25T10:07:25;4.25;;;1.25;;
16845;SDS011;8539;53.188;8.696;2023-04-25T10:10:04;3.10;;;1.50;;
16845;SDS011;8539;53.188;8.696;2023-04-25T10:12:32;5.80;;;1.77;;
16845;SDS011;8539;53.188;8.696;2023-04-25T10:14:58;6.10;;;1.85;;
16845;SDS011;8539;53.188;8.696;2023-04-25T10:17:30;4.22;;;1.35;;
16845;SDS011;8539;53.188;8.696;2023-04-25T10:19:58;7.88;;;1.88;;
16845;SDS011;8539;53.188;8.696;2023-04-25T10:25:01;6.85;;;2.33;;
16845;SDS011;8539;53.188;8.696;2023-04-25T10:27:29;3.97;;;1.33;;
16845;SDS011;8539;53.188;8.696;2023-04-25T10:32:42;7.18;;;1.50;;
16845;SDS011;8539;53.188;8.696;2023-04-25T10:35:18;10.35;;;1.73;;
16845;SDS011;8539;53.188;8.696;2023-04-25T10:38:23;3.78;;;1.52;;
16845;SDS011;8539;53.188;8.696;2023-04-25T10:40:42;13.52;;;1.98;;
16845;SDS011;8539;53.188;8.696;2023-04-25T10:44:02;3.67;;;1.35;;
16845;SDS011;8539;53.188;8.696;2023-04-25T10:46:27;6.90;;;1.50;;
16845;SDS011;8539;53.188;8.696;2023-04-25T10:48:58;4.47;;;1.60;;
16845;SDS011;8539;53.188;8.696;2023-04-25T10:51:29;8.98;;;1.52;;
16845;SDS011;8539;53.188;8.696;2023-04-25T10:53:59;10.77;;;1.50;;
16845;SDS011;8539;53.188;8.696;2023-04-25T10:56:45;7.35;;;1.60;;
16845;SDS011;8539;53.188;8.696;2023-04-25T10:59:14;9.93;;;1.67;;
16845;SDS011;8539;53.188;8.696;2023-04-25T11:01:53;3.53;;;2.33;;
16845;SDS011;8539;53.188;8.696;2023-04-25T11:09:35;6.05;;;1.73;;
16845;SDS011;8539;53.188;8.696;2023-04-25T11:12:03;8.75;;;1.52;;
16845;SDS011;8539;53.188;8.696;2023-04-25T11:14:30;6.20;;;1.75;;
16845;SDS011;8539;53.188;8.696;2023-04-25T11:16:57;7.30;;;2.38;;
16845;SDS011;8539;53.188;8.696;2023-04-25T11:19:25;8.82;;;2.42;;
16845;SDS011;8539;53.188;8.696;2023-04-25T11:21:55;5.15;;;1.42;;
16845;SDS011;8539;53.188;8.696;2023-04-25T11:24:29;8.10;;;1.63;;
16845;SDS011;8539;53.188;8.696;2023-04-25T11:26:56;7.40;;;1.52;;
16845;SDS011;8539;53.188;8.696;2023-04-25T11:29:27;7.43;;;1.70;;
16845;SDS011;8539;53.188;8.696;2023-04-25T11:31:54;4.72;;;1.25;;
16845;SDS011;8539;53.188;8.696;2023-04-25T11:34:24;3.55;;;1.48;;
16845;SDS011;8539;53.188;8.696;2023-04-25T11:36:51;9.60;;;1.75;;
16845;SDS011;8539;53.188;8.696;2023-04-25T11:39:18;6.75;;;1.83;;
16845;SDS011;8539;53.188;8.696;2023-04-25T11:41:45;5.82;;;1.60;;
16845;SDS011;8539;53.188;8.696;2023-04-25T11:44:15;5.90;;;1.85;;
16845;SDS011;8539;53.188;8.696;2023-04-25T11:46:42;6.13;;;1.50;;
16845;SDS011;8539;53.188;8.696;2023-04-25T11:49:08;6.88;;;1.33;;
16845;SDS011;8539;53.188;8.696;2023-04-25T11:51:38;6.50;;;1.35;;
16845;SDS011;8539;53.188;8.696;2023-04-25T11:54:06;6.20;;;1.33;;
16845;SDS011;8539;53.188;8.696;2023-04-25T11:56:32;2.10;;;0.75;;
16845;SDS011;8539;53.188;8.696;2023-04-25T11:58:59;5.55;;;1.38;;
16845;SDS011;8539;53.188;8.696;2023-04-25T12:01:27;7.38;;;1.17;;
16845;SDS011;8539;53.188;8.696;2023-04-25T12:03:55;4.78;;;1.50;;
16845;SDS011;8539;53.188;8.696;2023-04-25T12:06:25;2.58;;;1.35;;
16845;SDS011;8539;53.188;8.696;2023-04-25T12:09:06;4.30;;;1.17;;
16845;SDS011;8539;53.188;8.696;2023-04-25T12:11:40;6.45;;;1.63;;
16845;SDS011;8539;53.188;8.696;2023-04-25T12:14:12;3.90;;;1.20;;
16845;SDS011;8539;53.188;8.696;2023-04-25T12:16:52;6.35;;;1.30;;
16845;SDS011;8539;53.188;8.696;2023-04-25T12:19:21;7.28;;;1.58;;
16845;SDS011;8539;53.188;8.696;2023-04-25T12:21:47;2.67;;;1.48;;
16845;SDS011;8539;53.188;8.696;2023-04-25T12:24:15;11.48;;;2.00;;
16845;SDS011;8539;53.188;8.696;2023-04-25T12:26:53;14.07;;;3.80;;
16845;SDS011;8539;53.188;8.696;2023-04-25T12:29:26;6.80;;;1.73;;
16845;SDS011;8539;53.188;8.696;2023-04-25T12:31:54;9.90;;;2.00;;
16845;SDS011;8539;53.188;8.696;2023-04-25T12:34:21;8.60;;;1.77;;
16845;SDS011;8539;53.188;8.696;2023-04-25T12:36:48;6.35;;;1.98;;
16845;SDS011;8539;53.188;8.696;2023-04-25T12:39:19;7.20;;;2.38;;
16845;SDS011;8539;53.188;8.696;2023-04-25T12:41:47;6.22;;;1.58;;
16845;SDS011;8539;53.188;8.696;2023-04-25T12:44:14;2.80;;;1.50;;
16845;SDS011;8539;53.188;8.696;2023-04-25T12:46:41;2.33;;;1.15;;
16845;SDS011;8539;53.188;8.696;2023-04-25T12:49:07;5.15;;;1.38;;
16845;SDS011;8539;53.188;8.696;2023-04-25T12:51:34;3.83;;;1.02;;
16845;SDS011;8539;53.188;8.696;2023-04-25T12:54:01;6.97;;;1.30;;
16845;SDS011;8539;53.188;8.696;2023-04-25T12:56:30;4.78;;;1.48;;
16845;SDS011;8539;53.188;8.696;2023-04-25T12:58:56;5.68;;;1.48;;
16845;SDS011;8539;53.188;8.696;2023-04-25T13:01:23;5.05;;;1.42;;
16845;SDS011;8539;53.188;8.696;2023-04-25T13:03:52;7.70;;;2.13;;
16845;SDS011;8539;53.188;8.696;2023-04-25T13:06:18;10.68;;;1.75;;
16845;SDS011;8539;53.188;8.696;2023-04-25T13:08:45;5.63;;;2.53;;
16845;SDS011;8539;53.188;8.696;2023-04-25T13:11:12;11.00;;;1.63;;
16845;SDS011;8539;53.188;8.696;2023-04-25T13:13:40;10.05;;;1.55;;
16845;SDS011;8539;53.188;8.696;2023-04-25T13:16:06;6.70;;;1.40;;
16845;SDS011;8539;53.188;8.696;2023-04-25T13:18:33;5.47;;;1.60;;
16845;SDS011;8539;53.188;8.696;2023-04-25T13:21:00;8.13;;;2.10;;
16845;SDS011;8539;53.188;8.696;2023-04-25T13:23:26;6.53;;;1.88;;
16845;SDS011;8539;53.188;8.696;2023-04-25T13:25:53;6.10;;;1.30;;
16845;SDS011;8539;53.188;8.696;2023-04-25T13:28:23;4.50;;;1.02;;
16845;SDS011;8539;53.188;8.696;2023-04-25T13:30:50;5.88;;;1.40;;
16845;SDS011;8539;53.188;8.696;2023-04-25T13:33:17;3.03;;;0.90;;
16845;SDS011;8539;53.188;8.696;2023-04-25T13:35:44;2.47;;;1.38;;
16845;SDS011;8539;53.188;8.696;2023-04-25T13:38:19;9.93;;;1.83;;
16845;SDS011;8539;53.188;8.696;2023-04-25T13:40:47;4.75;;;1.30;;
16845;SDS011;8539;53.188;8.696;2023-04-25T13:43:14;6.05;;;1.50;;
16845;SDS011;8539;53.188;8.696;2023-04-25T13:45:41;6.43;;;1.33;;
16845;SDS011;8539;53.188;8.696;2023-04-25T13:48:07;8.40;;;1.23;;
16845;SDS011;8539;53.188;8.696;2023-04-25T13:50:33;2.30;;;0.95;;
16845;SDS011;8539;53.188;8.696;2023-04-25T13:52:59;4.03;;;1.17;;
16845;SDS011;8539;53.188;8.696;2023-04-25T13:55:25;4.57;;;1.40;;
16845;SDS011;8539;53.188;8.696;2023-04-25T13:57:51;5.38;;;1.17;;
16845;SDS011;8539;53.188;8.696;2023-04-25T14:00:18;3.75;;;1.30;;
16845;SDS011;8539;53.188;8.696;2023-04-25T14:02:45;3.00;;;1.13;;
16845;SDS011;8539;53.188;8.696;2023-04-25T14:05:11;6.20;;;1.75;;
16845;SDS011;8539;53.188;8.696;2023-04-25T14:07:37;3.42;;;1.10;;
16845;SDS011;8539;53.188;8.696;2023-04-25T14:10:03;6.13;;;1.45;;
16845;SDS011;8539;53.188;8.696;2023-04-25T14:12:31;5.40;;;1.23;;
16845;SDS011;8539;53.188;8.696;2023-04-25T14:14:57;2.83;;;1.23;;
16845;SDS011;8539;53.188;8.696;2023-04-25T14:17:24;6.88;;;1.50;;
16845;SDS011;8539;53.188;8.696;2023-04-25T14:19:50;8.32;;;1.98;;
16845;SDS011;8539;53.188;8.696;2023-04-25T14:22:16;5.35;;;1.67;;
16845;SDS011;8539;53.188;8.696;2023-04-25T14:24:42;7.10;;;1.98;;
16845;SDS011;8539;53.188;8.696;2023-04-25T14:27:08;6.38;;;1.77;;
16845;SDS011;8539;53.188;8.696;2023-04-25T14:29:34;4.70;;;1.55;;
16845;SDS011;8539;53.188;8.696;2023-04-25T14:32:01;2.50;;;1.42;;
16845;SDS011;8539;53.188;8.696;2023-04-25T14:34:27;2.53;;;1.17;;
16845;SDS011;8539;53.188;8.696;2023-04-25T14:36:53;8.10;;;2.38;;
16845;SDS011;8539;53.188;8.696;2023-04-25T14:39:19;2.83;;;1.17;;
16845;SDS011;8539;53.188;8.696;2023-04-25T14:41:45;4.00;;;1.00;;
16845;SDS011;8539;53.188;8.696;2023-04-25T14:44:11;8.25;;;1.55;;
16845;SDS011;8539;53.188;8.696;2023-04-25T14:46:37;4.50;;;2.05;;
16845;SDS011;8539;53.188;8.696;2023-04-25T14:49:05;5.38;;;1.20;;
16845;SDS011;8539;53.188;8.696;2023-04-25T14:51:31;6.75;;;1.25;;
16845;SDS011;8539;53.188;8.696;2023-04-25T14:53:57;10.25;;;1.90;;
16845;SDS011;8539;53.188;8.696;2023-04-25T14:56:23;3.05;;;1.17;;
16845;SDS011;8539;53.188;8.696;2023-04-25T14:58:49;7.05;;;1.30;;
16845;SDS011;8539;53.188;8.696;2023-04-25T15:01:29;8.63;;;1.50;;
16845;SDS011;8539;53.188;8.696;2023-04-25T15:03:56;5.50;;;1.42;;
16845;SDS011;8539;53.188;8.696;2023-04-25T15:06:22;11.95;;;1.60;;
16845;SDS011;8539;53.188;8.696;2023-04-25T15:08:51;6.80;;;1.83;;